Time;durP1;ratioP1;P1;durP2;ratioP2;P2;SDS_P1;SDS_P2;PMS_P1;PMS_P2;Temp;Humidity;BMP_temperature;BMP_pressure;BME280_temperature;BME280_humidity;BME280_pressure;Samples;Min_cycle;Max_cycle;Signal;HPM_P1;HPM_P2
2023/10/24 15:43:20;;;;;;;0.00;0.00;;;14.40;87.40;;;;;;5210427;22;20054;-82
2023/10/24 15:46:06;;;;;;;0.08;0.08;;;14.30;87.30;;;;;;5004890;28;20037;-79
2023/10/24 15:48:32;;;;;;;0.00;0.00;;;14.40;87.20;;;;;;4981424;28;20042;-81
2023/10/24 15:51:01;;;;;;;0.00;0.00;;;14.30;87.20;;;;;;5003362;28;20405;-83
2023/10/24 15:53:28;;;;;;;0.10;0.10;;;14.30;87.20;;;;;;4994662;28;20776;-82
2023/10/24 15:55:57;;;;;;;0.10;0.10;;;14.30;87.00;;;;;;5008031;28;20504;-81
2023/10/24 15:58:28;;;;;;;0.10;0.10;;;14.30;87.10;;;;;;5012032;28;20038;-81
2023/10/24 16:00:53;;;;;;;0.00;0.00;;;14.30;87.10;;;;;;5009962;28;20022;-82
2023/10/24 16:03:19;;;;;;;0.00;0.00;;;14.30;87.20;;;;;;5007900;28;20018;-81
2023/10/24 16:05:45;;;;;;;0.10;0.10;;;14.30;87.20;;;;;;4985829;28;20026;-82
2023/10/24 16:08:10;;;;;;;0.05;0.05;;;14.20;86.90;;;;;;5011199;28;20061;-82
2023/10/24 16:10:37;;;;;;;0.00;0.00;;;14.20;87.30;;;;;;4992319;28;20081;-81
2023/10/24 16:13:03;;;;;;;0.10;0.10;;;14.20;87.30;;;;;;4975173;28;20101;-82
2023/10/24 16:15:28;;;;;;;0.10;0.10;;;14.20;87.30;;;;;;4996781;28;20472;-82
2023/10/24 16:17:54;;;;;;;0.10;0.10;;;14.10;86.90;;;;;;4983791;28;20031;-82
2023/10/24 16:20:19;;;;;;;0.05;0.05;;;14.10;87.40;;;;;;4976569;28;20038;-84
2023/10/24 16:22:46;;;;;;;0.10;0.10;;;14.10;87.70;;;;;;4980018;28;20045;-88
2023/10/24 16:25:12;;;;;;;0.10;0.10;;;14.20;87.70;;;;;;4978233;28;20038;-84
2023/10/24 16:27:38;;;;;;;0.10;0.10;;;14.20;87.60;;;;;;4993832;28;20034;-83
2023/10/24 16:30:04;;;;;;;0.10;0.10;;;14.20;87.60;;;;;;4997030;28;20144;-82
2023/10/24 16:32:30;;;;;;;0.05;0.05;;;14.10;87.70;;;;;;4983845;28;20526;-82
2023/10/24 16:34:55;;;;;;;0.10;0.10;;;14.10;87.60;;;;;;4960102;28;20027;-83
2023/10/24 16:37:21;;;;;;;0.10;0.10;;;14.10;87.80;;;;;;4990101;28;20061;-82
2023/10/24 16:39:47;;;;;;;0.10;0.10;;;14.10;87.80;;;;;;4998913;28;20793;-86
2023/10/24 16:42:16;;;;;;;0.10;0.10;;;14.10;87.80;;;;;;4985910;28;20049;-84
2023/10/24 16:44:43;;;;;;;0.10;0.10;;;14.10;87.90;;;;;;4979413;28;20085;-84
2023/10/24 16:47:08;;;;;;;0.10;0.10;;;14.00;87.90;;;;;;4972666;28;20114;-86
2023/10/24 16:49:35;;;;;;;0.10;0.10;;;13.90;88.40;;;;;;4977035;28;20121;-87
2023/10/24 16:52:00;;;;;;;0.10;0.10;;;13.80;88.50;;;;;;4993165;28;20477;-86
2023/10/24 16:54:28;;;;;;;0.10;0.10;;;13.80;88.60;;;;;;4965522;28;20457;-81
2023/10/24 16:56:56;;;;;;;0.10;0.10;;;13.80;88.60;;;;;;4968575;28;20034;-83
2023/10/24 16:59:22;;;;;;;0.10;0.10;;;13.80;88.70;;;;;;4992096;28;20429;-89
2023/10/24 17:01:48;;;;;;;0.10;0.10;;;13.80;88.60;;;;;;4994170;28;20022;-85
2023/10/24 17:04:14;;;;;;;0.10;0.10;;;13.80;88.60;;;;;;4998863;28;20031;-83
2023/10/24 17:06:42;;;;;;;0.10;0.10;;;13.80;88.60;;;;;;4983816;28;20034;-78
2023/10/24 17:09:12;;;;;;;0.03;0.03;;;13.90;88.50;;;;;;4981577;28;20054;-76
2023/10/24 17:11:37;;;;;;;0.10;0.10;;;13.80;88.50;;;;;;4987612;28;20034;-77
2023/10/24 17:14:04;;;;;;;0.10;0.10;;;13.80;88.70;;;;;;4976236;28;20034;-79
2023/10/24 17:16:30;;;;;;;0.00;0.00;;;13.80;88.70;;;;;;4990488;28;20022;-84
2023/10/24 17:18:56;;;;;;;0.03;0.03;;;13.90;88.80;;;;;;4988128;28;20101;-78
2023/10/24 17:21:22;;;;;;;0.10;0.10;;;13.90;88.50;;;;;;4991403;28;20061;-80
2023/10/24 17:23:47;;;;;;;0.00;0.00;;;13.80;88.50;;;;;;4989572;28;20034;-82
2023/10/24 17:26:15;;;;;;;0.10;0.10;;;13.80;88.40;;;;;;4987458;28;20073;-80
2023/10/24 17:28:42;;;;;;;0.00;0.00;;;13.70;88.60;;;;;;4987877;28;20023;-79
2023/10/24 17:31:08;;;;;;;0.10;0.10;;;13.70;88.80;;;;;;4992020;28;20037;-77
2023/10/24 17:33:35;;;;;;;0.10;0.10;;;13.70;88.80;;;;;;4991350;28;20077;-79
2023/10/24 17:36:06;;;;;;;0.10;0.10;;;13.70;88.90;;;;;;4990853;28;20819;-79
2023/10/24 17:38:32;;;;;;;0.10;0.10;;;13.80;88.80;;;;;;4981531;28;20093;-82
2023/10/24 17:40:58;;;;;;;0.03;0.03;;;13.70;88.90;;;;;;4997767;28;20045;-82
2023/10/24 17:43:25;;;;;;;0.10;0.10;;;13.80;89.00;;;;;;5000958;28;20062;-80
2023/10/24 17:45:51;;;;;;;0.10;0.10;;;13.70;89.00;;;;;;4995815;28;20563;-80
2023/10/24 17:48:17;;;;;;;0.00;0.00;;;13.70;89.00;;;;;;4979340;28;20039;-79
2023/10/24 17:50:42;;;;;;;0.10;0.10;;;13.80;89.00;;;;;;4986702;28;20474;-80
2023/10/24 17:53:09;;;;;;;0.10;0.10;;;13.80;89.20;;;;;;4998995;28;20034;-85
2023/10/24 17:55:35;;;;;;;0.10;0.10;;;13.80;89.10;;;;;;4981188;28;20084;-81
2023/10/24 17:58:02;;;;;;;0.10;0.10;;;13.80;88.80;;;;;;4994338;28;20031;-85
2023/10/24 18:00:28;;;;;;;0.10;0.10;;;13.80;89.00;;;;;;4979437;28;20106;-83
2023/10/24 18:02:54;;;;;;;0.10;0.10;;;13.80;89.10;;;;;;4979244;28;20031;-82
2023/10/24 18:05:19;;;;;;;0.10;0.10;;;13.80;89.00;;;;;;4982300;28;20023;-84
2023/10/24 18:07:45;;;;;;;0.10;0.10;;;13.80;88.90;;;;;;4996393;28;20026;-84
2023/10/24 18:10:11;;;;;;;0.10;0.10;;;13.70;89.00;;;;;;4979042;28;20031;-82
2023/10/24 18:12:37;;;;;;;0.00;0.00;;;13.70;89.10;;;;;;4978755;28;20027;-86
2023/10/24 18:15:03;;;;;;;0.10;0.10;;;13.70;89.10;;;;;;4989025;28;20031;-81
2023/10/24 18:17:29;;;;;;;0.00;0.00;;;13.70;89.20;;;;;;4966311;28;20514;-82
2023/10/24 18:19:55;;;;;;;0.10;0.10;;;13.70;89.00;;;;;;4978935;28;20057;-78
2023/10/24 18:22:20;;;;;;;0.10;0.10;;;13.80;89.00;;;;;;4978985;28;20038;-78
2023/10/24 18:24:46;;;;;;;0.03;0.03;;;13.80;89.00;;;;;;4979549;28;20509;-79
2023/10/24 18:27:12;;;;;;;0.10;0.10;;;13.80;88.70;;;;;;4973575;28;20042;-78
2023/10/24 18:29:38;;;;;;;0.10;0.10;;;13.80;88.90;;;;;;4994259;28;20073;-78
2023/10/24 18:32:07;;;;;;;0.10;0.10;;;13.70;88.80;;;;;;4970364;28;20037;-80
2023/10/24 18:34:32;;;;;;;0.10;0.10;;;13.80;88.90;;;;;;4961517;28;20038;-81
2023/10/24 18:36:58;;;;;;;0.08;0.08;;;13.80;88.90;;;;;;4983930;28;20412;-81
2023/10/24 18:39:24;;;;;;;0.00;0.00;;;13.80;88.60;;;;;;4995096;28;20069;-78
2023/10/24 18:41:50;;;;;;;0.00;0.00;;;13.70;88.80;;;;;;4998232;28;20381;-82
2023/10/24 18:44:16;;;;;;;0.10;0.10;;;13.70;88.80;;;;;;4974036;28;20046;-78
2023/10/24 18:46:45;;;;;;;0.10;0.10;;;13.70;88.80;;;;;;4982547;28;20066;-79
2023/10/24 18:49:11;;;;;;;0.00;0.00;;;13.70;88.80;;;;;;4972525;28;20034;-83
2023/10/24 18:51:37;;;;;;;0.00;0.00;;;13.70;88.90;;;;;;4986437;28;20034;-78
2023/10/24 18:54:03;;;;;;;0.10;0.10;;;13.70;88.80;;;;;;4989962;28;20041;-77
2023/10/24 18:56:30;;;;;;;0.10;0.10;;;13.70;88.90;;;;;;4992600;28;20026;-80
2023/10/24 18:58:56;;;;;;;0.10;0.10;;;13.70;88.80;;;;;;4974107;28;20034;-79
2023/10/24 19:01:22;;;;;;;0.10;0.10;;;13.70;88.80;;;;;;4967085;28;20041;-78
2023/10/24 19:03:47;;;;;;;0.10;0.10;;;13.70;88.70;;;;;;4993844;28;20050;-79
2023/10/24 19:06:13;;;;;;;0.10;0.10;;;13.70;88.70;;;;;;4977358;28;20034;-78
2023/10/24 19:08:40;;;;;;;0.10;0.10;;;13.60;88.60;;;;;;4982838;28;20557;-79
2023/10/24 19:11:06;;;;;;;0.00;0.00;;;13.60;88.70;;;;;;4975852;28;20047;-79
2023/10/24 19:13:36;;;;;;;0.00;0.00;;;13.60;88.50;;;;;;4974135;28;20045;-79
2023/10/24 19:16:02;;;;;;;0.10;0.10;;;13.50;88.60;;;;;;4973513;28;20030;-79
2023/10/24 19:18:28;;;;;;;0.00;0.00;;;13.50;88.60;;;;;;4976621;28;20139;-80
2023/10/24 19:20:54;;;;;;;0.10;0.10;;;13.50;88.30;;;;;;4982051;28;20409;-80
2023/10/24 19:23:20;;;;;;;0.10;0.10;;;13.50;88.40;;;;;;4970245;28;20031;-80
2023/10/24 19:25:46;;;;;;;0.10;0.10;;;13.50;88.20;;;;;;4992966;28;20030;-80
2023/10/24 19:28:12;;;;;;;0.00;0.00;;;13.50;88.30;;;;;;4979372;28;20034;-80
2023/10/24 19:30:41;;;;;;;0.10;0.10;;;13.40;88.00;;;;;;4974220;28;20031;-80
2023/10/24 19:33:07;;;;;;;0.10;0.10;;;13.40;88.10;;;;;;4975936;28;20026;-80
2023/10/24 19:35:36;;;;;;;0.10;0.10;;;13.30;87.80;;;;;;4957025;28;20034;-79
2023/10/24 19:38:05;;;;;;;0.10;0.10;;;13.30;88.10;;;;;;4977731;28;20026;-81
2023/10/24 19:40:32;;;;;;;0.10;0.10;;;13.30;87.90;;;;;;4982968;28;20781;-80
2023/10/24 19:42:57;;;;;;;0.10;0.10;;;13.30;88.10;;;;;;4984052;28;20042;-80
2023/10/24 19:45:23;;;;;;;0.10;0.10;;;13.20;87.70;;;;;;4977979;28;21541;-79
2023/10/24 19:47:49;;;;;;;0.03;0.03;;;13.20;88.00;;;;;;4978725;28;20027;-81
2023/10/24 19:50:19;;;;;;;0.00;0.00;;;13.20;88.00;;;;;;4964308;28;20488;-81
2023/10/24 19:52:45;;;;;;;0.05;0.05;;;13.20;88.10;;;;;;4984240;28;20034;-80
2023/10/24 19:55:14;;;;;;;0.00;0.00;;;13.20;88.00;;;;;;4977449;28;20035;-79
2023/10/24 19:57:45;;;;;;;0.00;0.00;;;13.20;87.90;;;;;;4985446;28;20118;-80
2023/10/24 20:00:14;;;;;;;0.10;0.10;;;13.20;88.00;;;;;;4988636;28;20038;-78
2023/10/24 20:02:40;;;;;;;0.10;0.10;;;13.20;88.00;;;;;;4969591;28;20129;-79
2023/10/24 20:05:09;;;;;;;0.10;0.10;;;13.30;88.10;;;;;;4961828;28;20414;-81
2023/10/24 20:07:38;;;;;;;0.05;0.05;;;13.20;88.00;;;;;;4981389;28;20034;-79
2023/10/24 20:10:07;;;;;;;0.00;0.00;;;13.20;87.80;;;;;;4980261;28;20066;-78
2023/10/24 20:12:37;;;;;;;0.10;0.10;;;13.20;87.80;;;;;;4992965;28;20034;-79
2023/10/24 20:15:06;;;;;;;0.00;0.00;;;13.20;87.90;;;;;;4988483;28;20475;-78
2023/10/24 20:17:38;;;;;;;0.10;0.10;;;13.20;88.00;;;;;;4988920;28;20118;-79
2023/10/24 20:20:05;;;;;;;0.00;0.00;;;13.20;87.80;;;;;;4982206;28;20105;-78
2023/10/24 20:22:32;;;;;;;0.00;0.00;;;13.20;87.90;;;;;;4987395;28;20027;-78
2023/10/24 20:24:58;;;;;;;0.10;0.10;;;13.20;87.90;;;;;;4972107;28;20605;-79
2023/10/24 20:27:25;;;;;;;0.10;0.10;;;13.20;88.00;;;;;;4978250;28;20037;-79
2023/10/24 20:29:52;;;;;;;0.00;0.00;;;13.20;88.00;;;;;;4978441;28;20532;-78
2023/10/24 20:32:18;;;;;;;0.10;0.10;;;13.30;88.10;;;;;;4983452;28;20037;-79
2023/10/24 20:34:43;;;;;;;0.10;0.10;;;13.20;88.10;;;;;;4983096;28;20105;-78
2023/10/24 20:37:09;;;;;;;0.08;0.08;;;13.30;88.10;;;;;;4981141;28;20105;-78
2023/10/24 20:39:35;;;;;;;0.10;0.10;;;13.30;88.10;;;;;;4979696;28;20109;-78
2023/10/24 20:42:00;;;;;;;0.10;0.10;;;13.30;87.90;;;;;;4983882;28;20031;-79
2023/10/24 20:44:26;;;;;;;0.10;0.10;;;13.30;88.10;;;;;;4968783;28;20064;-78
2023/10/24 20:46:52;;;;;;;0.10;0.10;;;13.40;88.10;;;;;;4980353;28;20037;-78
2023/10/24 20:49:18;;;;;;;0.10;0.10;;;13.30;88.10;;;;;;4980712;28;20022;-78
2023/10/24 20:51:44;;;;;;;0.00;0.00;;;13.30;88.00;;;;;;4983850;28;20059;-78
2023/10/24 20:54:10;;;;;;;0.10;0.10;;;13.40;88.10;;;;;;4985103;28;20034;-78
2023/10/24 20:56:35;;;;;;;0.00;0.00;;;13.40;88.00;;;;;;4988375;28;20030;-78
2023/10/24 20:59:01;;;;;;;0.10;0.10;;;13.50;88.20;;;;;;4969298;28;20034;-78
2023/10/24 21:01:27;;;;;;;0.10;0.10;;;13.40;88.00;;;;;;4987730;28;20022;-78
2023/10/24 21:03:53;;;;;;;0.10;0.10;;;13.50;88.00;;;;;;4991307;28;20033;-78
2023/10/24 21:06:18;;;;;;;0.00;0.00;;;13.50;88.10;;;;;;4991657;28;20034;-78
2023/10/24 21:08:44;;;;;;;0.00;0.00;;;13.50;87.90;;;;;;4987532;28;20034;-78
2023/10/24 21:11:10;;;;;;;0.00;0.00;;;13.40;87.90;;;;;;4986667;28;20030;-78
2023/10/24 21:13:35;;;;;;;0.10;0.10;;;13.40;88.10;;;;;;4985410;28;20512;-78
2023/10/24 21:16:01;;;;;;;0.00;0.00;;;13.40;88.30;;;;;;4973623;28;20420;-78
2023/10/24 21:18:28;;;;;;;0.00;0.00;;;13.40;88.20;;;;;;4974302;28;20039;-78
2023/10/24 21:20:53;;;;;;;0.00;0.00;;;13.40;88.20;;;;;;4990376;28;20408;-78
2023/10/24 21:23:19;;;;;;;0.10;0.10;;;13.40;88.30;;;;;;4988269;28;20106;-78
2023/10/24 21:25:46;;;;;;;0.10;0.10;;;13.50;88.20;;;;;;4988949;28;20026;-78
2023/10/24 21:28:11;;;;;;;0.10;0.10;;;13.50;88.10;;;;;;4989142;28;20118;-78
